Time;durP1;ratioP1;P1;durP2;ratioP2;P2;SDS_P1;SDS_P2;PMS_P1;PMS_P2;Temp;Humidity;BMP_temperature;BMP_pressure;BME280_temperature;BME280_humidity;BME280_pressure;Samples;Min_cycle;Max_cycle;Signal;HPM_P1;HPM_P2
2022/04/03 00:01:28;;;;;;;;;;;0.10;99.90;;;-1.28;100.00;97223.66;5053390;28;20013;-85
2022/04/03 00:03:54;;;;;;;;;;;0.00;99.90;;;-1.09;100.00;97252.28;5053062;28;20400;-85
2022/04/03 00:06:20;;;;;;;;;;;0.00;99.90;;;-1.47;100.00;97199.41;5067484;28;20032;-84
2022/04/03 00:08:45;;;;;;;;;;;0.00;99.90;;;-1.21;100.00;97256.50;5050847;28;19920;-84
2022/04/03 00:11:11;;;;;;;;;;;0.00;99.90;;;-1.35;100.00;97232.25;5048439;28;19924;-85
2022/04/03 00:13:37;;;;;;;;;;;0.00;99.90;;;-1.30;100.00;97245.22;5066731;28;19917;-84
2022/04/03 00:16:06;;;;;;;;;;;-0.10;99.90;;;-1.20;100.00;97259.97;5053996;28;20396;-85
2022/04/03 00:18:32;;;;;;;;;;;-0.10;99.90;;;-1.24;100.00;97250.44;5049770;28;19924;-84
2022/04/03 00:20:58;;;;;;;;;;;-0.10;99.90;;;-1.22;100.00;97257.38;5067112;28;19924;-84
2022/04/03 00:23:24;;;;;;;;;;;-0.10;99.90;;;-1.22;100.00;97254.78;5069814;28;20005;-85
2022/04/03 00:25:51;;;;;;;;;;;0.00;99.90;;;-1.26;100.00;97249.56;5065606;28;20472;-84
2022/04/03 00:28:17;;;;;;;;;;;-0.10;99.90;;;-1.71;100.00;97187.13;5064234;28;19924;-84
2022/04/03 00:30:43;;;;;;;;;;;-0.10;99.90;;;-1.31;100.00;97248.66;5062408;28;19920;-84
2022/04/03 00:33:10;;;;;;;;;;;-0.10;99.90;;;-1.35;100.00;97237.41;5050387;28;19920;-84
2022/04/03 00:35:36;;;;;;;;;;;-0.10;99.90;;;-1.54;100.00;97213.16;5049594;28;19974;-84
2022/04/03 00:38:02;;;;;;;;;;;-0.10;99.90;;;-1.65;100.00;97194.97;5052492;28;19928;-84
2022/04/03 00:40:27;;;;;;;;;;;-0.10;99.90;;;-1.36;100.00;97246.03;5058291;28;19924;-84
2022/04/03 00:42:53;;;;;;;;;;;-0.10;99.90;;;-1.43;100.00;97244.25;5067843;28;19928;-84
2022/04/03 00:45:19;;;;;;;;;;;-0.10;99.90;;;-1.54;100.00;97229.53;5049376;28;19916;-84
2022/04/03 00:47:45;;;;;;;;;;;-0.10;99.90;;;-1.76;100.00;97200.03;5052761;28;20569;-85
2022/04/03 00:50:11;;;;;;;;;;;-0.20;99.90;;;-1.35;100.00;97266.75;5049650;28;20001;-84
2022/04/03 00:52:37;;;;;;;;;;;-0.20;99.90;;;-1.54;100.00;97239.00;5049147;28;20026;-85
2022/04/03 00:55:03;;;;;;;;;;;-0.20;99.90;;;-1.45;100.00;97261.50;5051690;28;20146;-84
2022/04/03 00:57:29;;;;;;;;;;;-0.30;99.90;;;-1.42;100.00;97262.41;5052162;28;20019;-84
2022/04/03 00:59:55;;;;;;;;;;;-0.20;99.90;;;-1.63;100.00;97221.69;5063155;28;20347;-84
2022/04/03 01:02:21;;;;;;;;;;;-0.20;99.90;;;-1.35;100.00;97269.34;5053197;28;19927;-85
2022/04/03 01:04:47;;;;;;;;;;;-0.20;99.90;;;-1.52;100.00;97244.19;5064072;28;19983;-85
2022/04/03 01:07:13;;;;;;;;;;;-0.20;99.90;;;-1.32;100.00;97260.72;5065026;28;20350;-84
2022/04/03 01:09:38;;;;;;;;;;;-0.20;99.90;;;-1.44;100.00;97248.56;5055185;28;19920;-85
2022/04/03 01:12:05;;;;;;;;;;;-0.10;99.90;;;-1.28;100.00;97259.03;5055852;28;19924;-85
2022/04/03 01:14:35;;;;;;;;;;;-0.10;99.90;;;-1.51;100.00;97233.84;5069126;28;19924;-84
2022/04/03 01:17:01;;;;;;;;;;;-0.10;99.90;;;-1.44;100.00;97251.13;5065362;28;19924;-83
2022/04/03 01:19:27;;;;;;;;;;;-0.10;99.90;;;-1.25;100.00;97277.19;5046249;28;19924;-84
2022/04/03 01:21:53;;;;;;;;;;;-0.20;99.90;;;-1.39;100.00;97262.41;5048543;28;19928;-85
2022/04/03 01:24:22;;;;;;;;;;;-0.20;99.90;;;-1.26;100.00;97275.44;5061524;28;19923;-85
2022/04/03 01:26:48;;;;;;;;;;;-0.20;99.90;;;-1.45;100.00;97257.19;5055481;28;20676;-85
2022/04/03 01:29:15;;;;;;;;;;;-0.10;99.90;;;-1.29;100.00;97277.97;5052803;28;19923;-85
2022/04/03 01:31:41;;;;;;;;;;;-0.20;99.90;;;-1.24;100.00;97276.31;5051123;28;19924;-85
2022/04/03 01:34:07;;;;;;;;;;;-0.10;99.90;;;-1.42;100.00;97251.16;5048738;28;19976;-84
2022/04/03 01:36:33;;;;;;;;;;;-0.20;99.90;;;-1.33;100.00;97282.28;5049224;28;20003;-84
2022/04/03 01:38:59;;;;;;;;;;;-0.20;99.90;;;-1.75;100.00;97216.41;5050198;28;19935;-85
2022/04/03 01:41:24;;;;;;;;;;;-0.10;99.90;;;-1.59;100.00;97248.44;5056718;28;19964;-84
2022/04/03 01:43:50;;;;;;;;;;;-0.20;99.90;;;-1.66;100.00;97225.97;5065559;28;19985;-84
2022/04/03 01:46:15;;;;;;;;;;;-0.20;99.90;;;-1.42;100.00;97270.16;5048974;28;19977;-85
2022/04/03 01:48:41;;;;;;;;;;;-0.20;99.90;;;-1.55;100.00;97260.53;5061799;28;19963;-83
2022/04/03 01:51:07;;;;;;;;;;;-0.20;99.90;;;-1.37;100.00;97273.63;5061981;28;19928;-85
2022/04/03 01:53:32;;;;;;;;;;;-0.20;99.90;;;-1.44;100.00;97263.22;5063088;28;19924;-84
2022/04/03 01:56:03;;;;;;;;;;;-0.20;99.90;;;-1.36;100.00;97274.50;5064374;28;19951;-83
2022/04/03 01:58:29;;;;;;;;;;;-0.20;99.90;;;-1.41;100.00;97277.03;5061385;28;19955;-84
2022/04/03 02:00:55;;;;;;;;;;;-0.20;99.90;;;-1.52;100.00;97251.97;5051158;28;19935;-83
2022/04/03 02:03:21;;;;;;;;;;;-0.20;99.90;;;-1.40;100.00;97275.31;5051498;28;19931;-84
2022/04/03 02:05:47;;;;;;;;;;;-0.20;99.90;;;-1.33;100.00;97278.81;5056579;28;20879;-84
2022/04/03 02:08:13;;;;;;;;;;;-0.20;99.90;;;-1.45;100.00;97258.91;5071793;28;20007;-83
2022/04/03 02:10:38;;;;;;;;;;;-0.20;99.90;;;-1.37;100.00;97273.63;5073568;28;19924;-84
2022/04/03 02:13:04;;;;;;;;;;;-0.10;99.90;;;-1.70;100.00;97209.56;5065806;28;19976;-84
2022/04/03 02:15:30;;;;;;;;;;;-0.10;99.90;;;-1.17;100.00;97291.91;5053731;28;19924;-84
2022/04/03 02:17:56;;;;;;;;;;;-0.10;99.90;;;-1.56;100.00;97240.72;5067527;28;19934;-83
2022/04/03 02:20:22;;;;;;;;;;;-0.10;99.90;;;-1.21;100.00;97304.81;5072182;28;19912;-83
2022/04/03 02:22:48;;;;;;;;;;;-0.10;99.90;;;-1.40;100.00;97264.97;5076982;28;19946;-84
2022/04/03 02:25:14;;;;;;;;;;;-0.10;99.90;;;-1.32;100.00;97278.84;5068964;28;19936;-84
2022/04/03 02:27:41;;;;;;;;;;;-0.10;99.90;;;-1.38;100.00;97271.91;5060594;28;19920;-85
2022/04/03 02:30:10;;;;;;;;;;;-0.10;99.90;;;-1.65;100.00;97228.56;5075449;28;19992;-84
2022/04/03 02:32:37;;;;;;;;;;;-0.10;99.90;;;-1.41;100.00;97279.63;5061004;28;21005;-85
2022/04/03 02:35:04;;;;;;;;;;;-0.20;99.90;;;-1.40;100.00;97276.19;5059849;28;20360;-83
2022/04/03 02:37:30;;;;;;;;;;;-0.20;99.90;;;-1.67;100.00;97226.81;5067901;28;19920;-84
2022/04/03 02:39:55;;;;;;;;;;;-0.20;99.90;;;-1.46;100.00;97263.19;5070232;28;20442;-84
2022/04/03 02:42:22;;;;;;;;;;;-0.10;99.90;;;-1.39;100.00;97272.75;5067708;28;19971;-84
2022/04/03 02:44:47;;;;;;;;;;;-0.10;99.90;;;-1.41;100.00;97268.44;5074629;28;19960;-85
2022/04/03 02:47:14;;;;;;;;;;;-0.10;99.90;;;-1.32;100.00;97298.69;5072506;28;19974;-84
2022/04/03 02:49:39;;;;;;;;;;;-0.10;99.90;;;-1.27;100.00;97297.00;5052226;28;19919;-83
2022/04/03 02:52:05;;;;;;;;;;;-0.10;99.90;;;-1.34;100.00;97280.56;5067375;28;19924;-84
2022/04/03 02:54:31;;;;;;;;;;;-0.10;99.90;;;-1.41;100.00;97281.34;5053035;28;20366;-84
2022/04/03 02:56:57;;;;;;;;;;;-0.10;99.90;;;-1.41;100.00;97277.03;5068985;28;19966;-84
2022/04/03 02:59:23;;;;;;;;;;;-0.10;99.90;;;-1.35;100.00;97297.81;5053816;28;19916;-84
2022/04/03 03:01:48;;;;;;;;;;;-0.20;99.90;;;-1.34;100.00;97288.31;5057727;28;19980;-85
2022/04/03 03:04:14;;;;;;;;;;;-0.20;99.90;;;-1.29;100.00;97294.41;5056163;28;19945;-84
2022/04/03 03:06:40;;;;;;;;;;;-0.10;99.90;;;-1.30;100.00;97302.16;5068508;28;19916;-84
2022/04/03 03:09:06;;;;;;;;;;;-0.10;99.90;;;-1.33;100.00;97289.16;5057389;28;19974;-84
2022/04/03 03:11:31;;;;;;;;;;;-0.10;99.90;;;-1.43;100.00;97280.47;5054017;28;19920;-83
2022/04/03 03:13:57;;;;;;;;;;;-0.20;99.90;;;-1.88;100.00;97214.56;5071421;28;19968;-84
2022/04/03 03:16:23;;;;;;;;;;;-0.20;99.90;;;-1.62;100.00;97251.00;5057150;28;19974;-84
2022/04/03 03:18:48;;;;;;;;;;;-0.20;99.90;;;-1.71;100.00;97231.09;5068262;28;20385;-84
2022/04/03 03:21:15;;;;;;;;;;;-0.20;99.90;;;-1.35;100.00;97282.28;5067426;28;19988;-84
2022/04/03 03:23:41;;;;;;;;;;;-0.20;99.90;;;-1.41;100.00;97269.28;5069736;28;19931;-85
2022/04/03 03:26:07;;;;;;;;;;;-0.20;99.90;;;-1.45;100.00;97269.25;5073332;28;19924;-84
2022/04/03 03:28:33;;;;;;;;;;;-0.20;99.90;;;-1.67;100.00;97235.47;5057740;28;19920;-84
2022/04/03 03:30:58;;;;;;;;;;;-0.20;99.90;;;-1.36;100.00;97290.88;5059039;28;19924;-84
2022/04/03 03:33:24;;;;;;;;;;;-0.10;99.90;;;-1.23;100.00;97309.97;5067139;28;20583;-85
2022/04/03 03:35:49;;;;;;;;;;;-0.20;99.90;;;-1.67;100.00;97252.66;5052855;28;20374;-84
2022/04/03 03:38:15;;;;;;;;;;;-0.20;99.90;;;-2.02;100.00;97186.03;5068228;28;20167;-84
2022/04/03 03:40:41;;;;;;;;;;;-0.20;99.90;;;-1.39;100.00;97305.50;5066981;28;19931;-84
2022/04/03 03:43:09;;;;;;;;;;;-0.30;99.90;;;-1.42;100.00;97300.31;5055782;28;20515;-84
2022/04/03 03:45:35;;;;;;;;;;;-0.20;99.90;;;-1.49;100.00;97283.00;5061750;28;20043;-84
2022/04/03 03:48:01;;;;;;;;;;;-0.30;99.90;;;-1.34;100.00;97314.19;5051691;28;19925;-84
2022/04/03 03:50:27;;;;;;;;;;;-0.20;99.90;;;-1.52;100.00;97281.25;5066127;28;20365;-84
2022/04/03 03:52:52;;;;;;;;;;;-0.20;99.90;;;-1.47;100.00;97297.69;5053423;28;19920;-84
2022/04/03 03:55:18;;;;;;;;;;;-0.20;99.90;;;-1.49;100.00;97290.75;5051356;28;20367;-84
2022/04/03 03:57:47;;;;;;;;;;;-0.20;99.90;;;-1.42;100.00;97305.47;5052933;28;20401;-84
2022/04/03 04:00:14;;;;;;;;;;;-0.20;99.90;;;-1.56;100.00;97289.84;5052823;28;19924;-84
2022/04/03 04:02:40;;;;;;;;;;;-0.20;99.90;;;-1.66;100.00;97285.44;5053676;28;20768;-84
2022/04/03 04:05:07;;;;;;;;;;;-0.30;99.90;;;-1.37;100.00;97327.09;5068735;28;19945;-83
2022/04/03 04:07:44;;;;;;;;;;;-0.30;99.90;;;-1.57;100.00;97294.13;5050882;28;20377;-85
2022/04/03 04:10:14;;;;;;;;;;;-0.30;99.90;;;-1.35;100.00;97335.72;5076105;28;20590;-84
2022/04/03 04:12:41;;;;;;;;;;;-0.20;99.90;;;-1.73;100.00;97282.78;5067877;28;19965;-84
2022/04/03 04:15:08;;;;;;;;;;;-0.30;99.90;;;-1.57;100.00;97294.13;5060619;28;20018;-84
2022/04/03 04:17:34;;;;;;;;;;;-0.30;99.90;;;-1.52;100.00;97307.13;5048601;28;19970;-84
2022/04/03 04:20:00;;;;;;;;;;;-0.30;99.90;;;-1.52;100.00;97314.88;5044026;28;19931;-84
2022/04/03 04:22:26;;;;;;;;;;;-0.30;99.90;;;-1.59;100.00;97305.34;5063282;28;19920;-85
2022/04/03 04:24:52;;;;;;;;;;;-0.30;99.90;;;-1.51;100.00;97320.91;5052652;28;19924;-84
2022/04/03 04:27:17;;;;;;;;;;;-0.30;99.90;;;-1.54;100.00;97332.97;5055229;28;19921;-85
2022/04/03 04:29:43;;;;;;;;;;;-0.30;99.90;;;-1.79;100.00;97287.06;5065912;28;20049;-84
2022/04/03 04:32:08;;;;;;;;;;;-0.30;99.90;;;-1.73;100.00;97292.28;5066623;28;19942;-84
2022/04/03 04:34:35;;;;;;;;;;;-0.30;99.90;;;-1.63;100.00;97324.28;5063771;28;19927;-84
2022/04/03 04:37:00;;;;;;;;;;;-0.30;99.90;;;-1.54;100.00;97340.72;5064022;28;19924;-84
2022/04/03 04:39:26;;;;;;;;;;;-0.40;99.90;;;-1.73;100.00;97316.41;5072503;28;19920;-85
2022/04/03 04:41:51;;;;;;;;;;;-0.40;99.90;;;-1.62;100.00;97331.16;5060366;28;19951;-83
2022/04/03 04:44:17;;;;;;;;;;;-0.40;99.90;;;-1.57;100.00;97348.44;5087618;27;19993;-84
2022/04/03 04:46:43;;;;;;;;;;;-0.40;99.90;;;-1.60;100.00;97343.28;5067775;28;19921;-85
2022/04/03 04:49:08;;;;;;;;;;;-0.40;99.90;;;-2.01;100.00;97281.66;5076807;28;19935;-84
2022/04/03 04:51:34;;;;;;;;;;;-0.40;99.90;;;-1.57;100.00;97338.09;5075664;28;20612;-84
2022/04/03 04:54:00;;;;;;;;;;;-0.40;99.90;;;-1.44;100.00;97359.78;5054093;28;19924;-84
2022/04/03 04:56:25;;;;;;;;;;;-0.30;99.90;;;-1.49;100.00;97342.50;5050995;28;19924;-84
2022/04/03 04:58:51;;;;;;;;;;;-0.30;99.90;;;-1.43;100.00;97364.13;5055153;28;19944;-84
2022/04/03 05:01:17;;;;;;;;;;;-0.30;99.90;;;-1.54;100.00;97334.69;5053905;28;20750;-83
2022/04/03 05:03:43;;;;;;;;;;;-0.30;99.90;;;-1.37;100.00;97359.00;5051206;28;21972;-84
2022/04/03 05:06:12;;;;;;;;;;;-0.20;99.90;;;-1.57;100.00;97340.69;5049955;28;20397;-84
2022/04/03 05:08:38;;;;;;;;;;;-0.20;99.90;;;-1.48;100.00;97355.44;5060246;28;19969;-83
2022/04/03 05:11:04;;;;;;;;;;;-0.20;99.90;;;-1.39;100.00;97371.03;5080331;28;19916;-84
2022/04/03 05:13:29;;;;;;;;;;;-0.20;99.90;;;-1.69;100.00;97325.06;5062394;28;20360;-84
2022/04/03 05:15:55;;;;;;;;;;;-0.20;99.90;;;-1.59;100.00;97341.53;5072895;28;20038;-84
2022/04/03 05:18:21;;;;;;;;;;;-0.20;99.90;;;-1.32;100.00;97378.88;5077422;28;19946;-83
2022/04/03 05:20:48;;;;;;;;;;;-0.20;99.90;;;-1.36;100.00;97368.50;5065958;28;19924;-84
2022/04/03 05:23:14;;;;;;;;;;;-0.20;99.90;;;-1.32;100.00;97371.13;5056869;28;19966;-84
2022/04/03 05:25:40;;;;;;;;;;;-0.10;99.90;;;-1.33;100.00;97371.97;5064305;28;19932;-83
2022/04/03 05:28:08;;;;;;;;;;;-0.10;99.90;;;-1.41;100.00;97361.56;5059707;28;19924;-84
2022/04/03 05:30:34;;;;;;;;;;;-0.10;99.90;;;-1.31;100.00;97375.44;5060358;28;19916;-84
2022/04/03 05:33:00;;;;;;;;;;;-0.10;99.90;;;-1.32;100.00;97365.94;5077923;28;19930;-82
2022/04/03 05:35:25;;;;;;;;;;;0.00;99.90;;;-1.16;100.00;97380.75;5058623;28;19938;-84
2022/04/03 05:37:51;;;;;;;;;;;0.00;99.90;;;-1.09;100.00;97389.47;5072816;28;20400;-83
2022/04/03 05:40:17;;;;;;;;;;;0.00;99.90;;;-0.95;100.00;97405.97;5050706;28;19928;-84
2022/04/03 05:42:43;;;;;;;;;;;0.10;99.90;;;-1.23;100.00;97360.84;5074650;28;19924;-84
2022/04/03 05:45:09;;;;;;;;;;;0.10;99.90;;;-1.05;100.00;97386.88;5071119;28;19950;-84
2022/04/03 05:47:35;;;;;;;;;;;0.10;99.90;;;-0.91;100.00;97404.28;5069901;28;19928;-83
2022/04/03 05:50:01;;;;;;;;;;;0.20;99.90;;;-0.86;100.00;97398.28;5056495;28;19989;-84
2022/04/03 05:52:27;;;;;;;;;;;0.20;99.90;;;-0.89;100.00;97381.84;5068574;28;19920;-83
2022/04/03 05:54:52;;;;;;;;;;;0.30;99.90;;;-0.70;100.00;97404.44;5068005;28;19924;-84
2022/04/03 05:57:18;;;;;;;;;;;0.30;99.90;;;-0.71;100.00;97386.31;5067883;28;19977;-84
2022/04/03 05:59:44;;;;;;;;;;;0.50;99.90;;;-0.47;100.00;97406.31;5053441;28;19923;-84
2022/04/03 06:02:12;;;;;;;;;;;0.60;99.90;;;-0.48;100.00;97394.25;5053165;28;20018;-84
2022/04/03 06:04:38;;;;;;;;;;;0.70;99.90;;;-0.27;100.00;97420.28;5067912;28;20051;-84
2022/04/03 06:07:03;;;;;;;;;;;0.80;99.90;;;-0.12;100.00;97416.06;5055307;28;19934;-84
2022/04/03 06:09:29;;;;;;;;;;;0.90;99.90;;;-0.30;100.00;97373.63;5055688;28;19924;-83
2022/04/03 06:11:55;;;;;;;;;;;0.90;99.90;;;-0.02;100.00;97410.03;5053986;28;20385;-84
2022/04/03 06:14:20;;;;;;;;;;;1.00;99.90;;;0.10;100.00;97424.81;5052817;28;19924;-84
2022/04/03 06:16:46;;;;;;;;;;;1.10;99.90;;;0.24;100.00;97437.84;5066337;28;20184;-84
2022/04/03 06:19:12;;;;;;;;;;;1.20;99.90;;;0.10;100.00;97404.91;5054830;28;19955;-84
2022/04/03 06:21:38;;;;;;;;;;;1.30;99.90;;;0.08;100.00;97377.25;5069279;28;20409;-84
2022/04/03 06:24:04;;;;;;;;;;;1.40;99.90;;;0.43;100.00;97423.19;5053110;28;19920;-84
2022/04/03 06:26:29;;;;;;;;;;;1.50;99.90;;;0.70;100.00;97432.78;5064141;28;19920;-84
2022/04/03 06:28:55;;;;;;;;;;;1.70;99.90;;;0.68;100.00;97422.44;5065629;28;19935;-84
2022/04/03 06:31:21;;;;;;;;;;;1.80;99.90;;;0.85;100.00;97435.44;5049147;28;19916;-84
2022/04/03 06:33:46;;;;;;;;;;;1.80;99.90;;;0.91;100.00;97451.00;5052372;28;19952;-84
2022/04/03 06:36:12;;;;;;;;;;;1.90;99.90;;;1.07;100.00;97444.13;5064412;28;20281;-84
2022/04/03 06:38:37;;;;;;;;;;;2.10;99.90;;;0.90;100.00;97432.84;5075041;28;19931;-84
2022/04/03 06:41:03;;;;;;;;;;;2.10;99.90;;;0.95;100.00;97442.38;5065889;28;19931;-84
2022/04/03 06:43:30;;;;;;;;;;;2.10;99.90;;;1.20;100.00;97439.78;5062613;28;20001;-84
2022/04/03 06:45:56;;;;;;;;;;;2.20;99.90;;;1.39;100.00;97455.41;5060829;28;20278;-84
2022/04/03 06:48:22;;;;;;;;;;;2.40;99.90;;;1.23;100.00;97419.03;5062316;28;19931;-84
2022/04/03 06:50:48;;;;;;;;;;;2.50;99.90;;;1.69;100.00;97455.41;5063656;28;19916;-85
2022/04/03 06:53:14;;;;;;;;;;;2.70;99.90;;;1.97;100.00;97464.91;5070665;28;20017;-84
2022/04/03 06:55:39;;;;;;;;;;;2.90;99.90;;;1.93;100.00;97439.78;5052680;28;19971;-84
2022/04/03 06:58:05;;;;;;;;;;;3.20;99.90;;;2.31;100.00;97470.03;5070199;28;19923;-85
2022/04/03 07:00:31;;;;;;;;;;;3.30;99.90;;;2.47;100.00;97479.50;5070577;28;19923;-85
2022/04/03 07:02:56;;;;;;;;;;;3.50;99.90;;;2.46;100.00;97447.41;5056919;28;20043;-84
2022/04/03 07:05:23;;;;;;;;;;;3.60;99.90;;;2.45;100.00;97430.06;5050051;28;19925;-85
2022/04/03 07:07:52;;;;;;;;;;;3.70;99.90;;;2.59;100.00;97463.84;5058928;28;19924;-85
2022/04/03 07:10:19;;;;;;;;;;;3.80;99.90;;;2.46;100.00;97443.97;5069974;28;20581;-85
2022/04/03 07:12:45;;;;;;;;;;;3.80;99.90;;;2.21;99.61;97450.97;5070796;28;20538;-85
2022/04/03 07:15:12;;;;;;;;;;;3.60;99.90;;;2.08;100.00;97447.53;5066708;28;19927;-85
2022/04/03 07:17:41;;;;;;;;;;;3.40;99.90;;;1.59;100.00;97386.09;5069159;28;19920;-85
2022/04/03 07:20:08;;;;;;;;;;;3.30;99.90;;;2.04;100.00;97462.28;5072401;28;20083;-85
2022/04/03 07:22:33;;;;;;;;;;;3.20;99.90;;;1.86;100.00;97441.50;5071255;28;19997;-85
2022/04/03 07:24:59;;;;;;;;;;;3.20;99.90;;;1.86;100.00;97421.56;5054143;28;20445;-85
2022/04/03 07:27:26;;;;;;;;;;;3.20;99.90;;;1.77;100.00;97390.38;5069657;28;20312;-85
2022/04/03 07:29:52;;;;;;;;;;;3.30;99.90;;;2.55;100.00;97469.06;5069440;28;20001;-85
2022/04/03 07:32:17;;;;;;;;;;;3.50;99.90;;;2.53;96.85;97489.03;5069212;28;19919;-85
2022/04/03 07:34:43;;;;;;;;;;;3.70;99.90;;;2.56;97.45;97486.44;5070157;28;19924;-85
2022/04/03 07:37:08;;;;;;;;;;;3.70;99.90;;;2.62;95.94;97496.81;5072009;28;19924;-85
2022/04/03 07:39:34;;;;;;;;;;;3.80;99.90;;;2.78;96.03;97510.63;5068116;28;19963;-85
2022/04/03 07:42:01;;;;;;;;;;;3.80;99.90;;;3.09;97.06;97507.88;5043588;28;20783;-85
2022/04/03 07:44:26;;;;;;;;;;;4.00;99.90;;;2.70;95.69;97468.16;5075479;28;19920;-85
2022/04/03 07:46:52;;;;;;;;;;;4.00;99.90;;;2.87;95.72;97489.75;5055506;28;19924;-85
2022/04/03 07:49:17;;;;;;;;;;;4.00;99.90;;;2.76;94.30;97471.56;5064096;28;19920;-85
2022/04/03 07:51:43;;;;;;;;;;;4.10;99.90;;;3.06;96.17;97508.78;5066685;28;19924;-85
2022/04/03 07:54:09;;;;;;;;;;;4.10;99.90;;;2.94;96.25;97472.34;5066472;28;20377;-85
2022/04/03 07:56:35;;;;;;;;;;;4.20;99.90;;;3.25;92.91;97510.41;5068281;28;19925;-84
2022/04/03 07:59:01;;;;;;;;;;;4.30;99.90;;;3.12;89.64;97506.13;5064259;28;19954;-85
2022/04/03 08:01:28;;;;;;;;;;;4.40;99.90;;;3.13;88.31;97509.63;5064818;28;19970;-85
2022/04/03 08:03:53;;;;;;;;;;;4.30;99.90;;;3.28;91.04;97530.34;5070271;28;19992;-85
2022/04/03 08:06:19;;;;;;;;;;;4.30;99.90;;;3.43;91.99;97517.22;5068944;28;20405;-85
2022/04/03 08:08:45;;;;;;;;;;;4.50;99.90;;;3.67;91.83;97514.47;5067588;28;20635;-85
2022/04/03 08:11:10;;;;;;;;;;;4.70;99.90;;;3.57;85.07;97527.59;5052357;28;19939;-85
2022/04/03 08:13:36;;;;;;;;;;;4.80;99.90;;;3.89;87.76;97536.03;5067997;28;19920;-84
2022/04/03 08:16:02;;;;;;;;;;;4.90;99.90;;;3.95;87.10;97526.41;5063973;28;19931;-85
2022/04/03 08:18:28;;;;;;;;;;;5.10;99.90;;;3.80;81.91;97530.03;5051433;28;20007;-85
2022/04/03 08:20:53;;;;;;;;;;;5.10;99.90;;;3.94;81.14;97529.88;5076087;28;19930;-84
2022/04/03 08:23:19;;;;;;;;;;;5.10;99.90;;;4.06;83.83;97530.69;5064069;28;19920;-84
2022/04/03 08:25:45;;;;;;;;;;;5.20;99.90;;;3.56;83.11;97485.88;5066271;28;20323;-85
2022/04/03 08:28:11;;;;;;;;;;;5.20;99.90;;;3.62;84.42;97544.06;5047813;28;20385;-85
2022/04/03 08:30:38;;;;;;;;;;;4.90;99.90;;;3.62;86.67;97532.75;5065840;28;20032;-84
2022/04/03 08:33:05;;;;;;;;;;;4.90;99.90;;;3.49;79.47;97524.16;5038875;28;20034;-84
2022/04/03 08:35:32;;;;;;;;;;;4.90;99.90;;;3.72;82.48;97531.81;5051143;28;19920;-84
2022/04/03 08:37:59;;;;;;;;;;;4.90;99.90;;;3.91;81.84;97558.63;5060938;28;19925;-84
2022/04/03 08:40:25;;;;;;;;;;;5.00;99.90;;;4.04;83.59;97561.13;5066185;28;19942;-84
2022/04/03 08:42:52;;;;;;;;;;;5.00;99.90;;;3.96;81.17;97541.16;5045339;28;19935;-85
2022/04/03 08:45:24;;;;;;;;;;;5.20;99.90;;;4.09;81.17;97521.06;5058406;28;19967;-85
2022/04/03 08:47:52;;;;;;;;;;;5.30;99.90;;;4.18;77.22;97520.97;5046287;28;20406;-85
2022/04/03 08:50:19;;;;;;;;;;;5.50;99.90;;;4.43;78.11;97528.53;5048815;28;20285;-85
2022/04/03 08:52:47;;;;;;;;;;;5.80;99.90;;;4.31;77.11;97495.63;5057229;28;20397;-85
2022/04/03 08:55:13;;;;;;;;;;;5.90;99.90;;;4.58;77.90;97501.41;5062140;28;21149;-85
2022/04/03 08:57:39;;;;;;;;;;;6.20;99.90;;;5.15;77.88;97563.44;5057932;28;20399;-85
2022/04/03 09:00:06;;;;;;;;;;;6.40;99.90;;;4.67;69.42;97552.69;5056987;28;20102;-84
2022/04/03 09:02:32;;;;;;;;;;;6.20;99.90;;;4.56;74.76;97531.91;5056755;28;20016;-84
2022/04/03 09:04:57;;;;;;;;;;;5.90;99.90;;;4.35;76.73;97543.44;5068928;28;20160;-85
2022/04/03 09:07:23;;;;;;;;;;;5.70;99.90;;;3.58;74.31;97516.25;5053094;28;19924;-84
2022/04/03 09:10:00;;;;;;;;;;;5.30;99.90;;;3.61;79.89;97554.50;5054673;28;19967;-84
2022/04/03 09:12:26;;;;;;;;;;;4.90;99.90;;;3.45;80.15;97535.47;5069952;28;20015;-85
2022/04/03 09:14:53;;;;;;;;;;;4.90;99.90;;;3.88;81.09;97565.63;5066665;28;19931;-84
2022/04/03 09:17:37;;;;;;;;;;;4.90;99.90;;;4.19;79.18;97569.69;5051176;28;19925;-85
2022/04/03 09:20:07;;;;;;;;;;;5.20;99.90;;;4.29;76.39;97551.31;5058894;28;20483;-85
2022/04/03 09:22:36;;;;;;;;;;;5.50;99.90;;;4.79;76.37;97562.97;5059180;28;19924;-85
2022/04/03 09:25:07;;;;;;;;;;;5.80;99.90;;;4.76;74.40;97549.97;5055419;28;19986;-85
2022/04/03 09:27:46;;;;;;;;;;;6.10;99.90;;;4.73;70.32;97566.53;5053604;28;19920;-84
2022/04/03 09:30:12;;;;;;;;;;;6.10;99.90;;;4.59;72.60;97550.16;5055115;28;19916;-85
2022/04/03 09:32:47;;;;;;;;;;;5.90;99.90;;;4.69;70.18;97548.31;5055627;28;19958;-84
2022/04/03 09:35:14;;;;;;;;;;;5.90;99.90;;;5.13;68.94;97571.31;5054381;28;19924;-85
2022/04/03 09:38:10;;;;;;;;;;;6.10;99.90;;;5.08;70.57;97504.25;5057896;28;19916;-84
2022/04/03 09:40:38;;;;;;;;;;;6.40;99.90;;;5.92;70.34;97565.84;5073655;28;19931;-84
2022/04/03 09:43:23;;;;;;;;;;;6.90;99.90;;;6.25;70.38;97570.59;5073509;28;19924;-84
2022/04/03 09:45:56;;;;;;;;;;;7.20;99.90;;;5.89;65.28;97525.75;5072218;28;19920;-84
2022/04/03 09:48:31;;;;;;;;;;;7.20;99.90;;;5.00;62.46;97537.50;5059449;28;20023;-85
2022/04/03 09:51:05;;;;;;;;;;;6.80;99.90;;;4.64;67.91;97537.91;5057580;28;19921;-85
2022/04/03 09:53:45;;;;;;;;;;;6.10;99.90;;;4.42;69.62;97554.69;5053359;28;20306;-85
2022/04/03 09:56:23;;;;;;;;;;;5.60;99.90;;;4.10;71.52;97571.53;5069764;28;19947;-84
2022/04/03 09:58:51;;;;;;;;;;;5.20;99.90;;;3.89;74.75;97565.59;5069205;28;19920;-84
2022/04/03 10:01:27;;;;;;;;;;;5.00;99.90;;;3.87;76.63;97588.22;5070750;28;19982;-84
2022/04/03 10:03:53;;;;;;;;;;;4.90;99.90;;;3.41;75.75;97529.41;5055895;28;19981;-84
2022/04/03 10:06:18;;;;;;;;;;;4.80;99.90;;;3.48;76.45;97569.34;5066157;28;19984;-84
2022/04/03 10:08:46;;;;;;;;;;;4.70;99.90;;;3.15;77.08;97545.19;5059567;28;20328;-84
2022/04/03 10:11:12;;;;;;;;;;;4.60;99.90;;;3.29;79.40;97585.97;5072495;22;19924;-41
2022/04/03 10:13:38;;;;;;;;;;;4.50;99.90;;;3.05;79.07;97582.59;5070623;28;20015;-39
2022/04/03 10:16:04;;;;;;;;;;;4.20;99.90;;;2.97;80.98;97572.22;5061234;28;19916;-43
2022/04/03 10:18:30;;;;;;;;;;;4.10;99.90;;;2.95;82.92;97580.91;5048229;28;19925;-42
2022/04/03 10:20:56;;;;;;;;;;;4.00;99.90;;;2.85;85.54;97582.66;5045018;28;19927;-43
2022/04/03 10:23:22;;;;;;;;;;;3.90;99.90;;;2.77;87.19;97577.50;5048529;28;19924;-41
2022/04/03 10:25:49;;;;;;;;;;;3.80;99.90;;;2.79;88.72;97582.69;5051404;28;19924;-43
2022/04/03 10:28:20;;;;;;;;;;;3.70;99.90;;;2.81;89.41;97586.16;5055897;28;20852;-39
2022/04/03 10:31:00;;;;;;;;;;;3.80;99.90;;;2.84;89.77;97581.81;5044248;28;19931;-43
2022/04/03 10:33:35;;;;;;;;;;;3.80;99.90;;;3.03;89.13;97581.72;5053228;28;19965;-44
2022/04/03 10:36:07;;;;;;;;;;;4.00;99.90;;;3.19;86.51;97582.53;5056607;28;20365;-41
2022/04/03 10:38:44;;;;;;;;;;;4.10;99.90;;;3.37;85.89;97578.97;5055769;28;19999;-51
2022/04/03 10:41:29;;;;;;;;;;;4.30;99.90;;;3.58;85.70;97586.66;5058744;28;19994;-43
2022/04/03 10:44:10;;;;;;;;;;;4.50;99.90;;;3.79;84.17;97577.84;5057440;28;20344;-42
2022/04/03 10:47:01;;;;;;;;;;;4.60;99.90;;;4.08;81.47;97578.50;5052725;28;19916;-43
2022/04/03 10:49:40;;;;;;;;;;;5.00;99.90;;;4.35;80.42;97573.03;5054712;28;19927;-41
2022/04/03 10:52:09;;;;;;;;;;;5.40;99.90;;;4.66;76.71;97575.31;5053391;28;20380;-44
2022/04/03 10:54:49;;;;;;;;;;;5.60;99.90;;;4.84;72.99;97573.41;5050184;28;19924;-44
2022/04/03 10:57:46;;;;;;;;;;;5.80;99.90;;;5.01;75.91;97571.47;5055747;28;19926;-42
2022/04/03 11:00:12;;;;;;;;;;;6.00;99.90;;;5.18;74.29;97567.78;5052738;28;19920;-40
2022/04/03 11:02:49;;;;;;;;;;;6.20;99.90;;;5.39;73.55;97567.50;5052141;28;20263;-41
2022/04/03 11:05:21;;;;;;;;;;;6.40;99.90;;;5.63;68.80;97570.63;5052801;28;20014;-42
2022/04/03 11:07:47;;;;;;;;;;;6.70;99.90;;;5.85;66.15;97569.44;5054104;28;19978;-44
2022/04/03 11:17:53;;;;;;;;;;;7.90;99.90;;;6.78;62.11;97568.72;5065739;28;19932;-36
2022/04/03 11:20:30;;;;;;;;;;;7.80;99.90;;;6.46;62.75;97564.97;5075824;28;19978;-41
2022/04/03 11:22:57;;;;;;;;;;;7.50;99.90;;;6.22;64.40;97563.63;5072015;28;19949;-42
2022/04/03 11:25:22;;;;;;;;;;;7.20;99.90;;;6.04;67.44;97556.94;5065425;28;20011;-40
2022/04/03 11:47:24;;;;;;;;;;;5.80;99.90;;;4.88;70.58;97555.06;5031412;28;19979;-38